createdAt,value
2018-07-08T00:02:29.932Z,17.40
2018-07-08T00:04:59.749Z,17.40
2018-07-08T00:07:29.936Z,17.30
2018-07-08T00:09:58.732Z,17.30
2018-07-08T00:12:27.790Z,17.20
2018-07-08T00:14:59.872Z,17.20
2018-07-08T00:17:30.063Z,17.10
2018-07-08T00:19:58.745Z,17.10
2018-07-08T00:22:29.210Z,17.00
2018-07-08T00:24:57.846Z,17.00
2018-07-08T00:27:27.312Z,16.90
2018-07-08T00:29:56.064Z,16.90
2018-07-08T00:32:24.716Z,16.90
2018-07-08T00:34:53.334Z,16.80
2018-07-08T00:37:23.861Z,16.70
2018-07-08T00:39:54.225Z,16.70
2018-07-08T00:42:23.451Z,16.70
2018-07-08T00:44:54.066Z,16.70
2018-07-08T00:47:23.166Z,16.70
2018-07-08T00:49:52.977Z,16.60
2018-07-08T00:52:21.648Z,16.60
2018-07-08T00:54:51.392Z,16.70
2018-07-08T00:57:22.638Z,16.70
2018-07-08T00:59:51.437Z,16.60
2018-07-08T01:02:20.224Z,16.60
2018-07-08T01:04:49.192Z,16.60
2018-07-08T01:24:20.320Z,16.30
2018-07-08T01:26:49.006Z,16.30
2018-07-08T01:29:17.783Z,16.20
2018-07-08T01:48:49.282Z,15.90
2018-07-08T01:51:17.872Z,15.90
2018-07-08T01:53:47.473Z,15.90
2018-07-08T01:56:16.151Z,15.70
2018-07-08T01:58:44.993Z,15.70
2018-07-08T02:01:14.527Z,15.60
2018-07-08T02:03:43.106Z,15.60
2018-07-08T02:06:12.754Z,15.60
2018-07-08T02:08:42.430Z,15.50
2018-07-08T02:28:14.420Z,15.20
2018-07-08T02:30:42.929Z,15.20
2018-07-08T02:33:11.665Z,15.20
2018-07-08T02:35:40.766Z,15.10
2018-07-08T02:38:09.738Z,15.10
2018-07-08T02:40:38.341Z,15.10
2018-07-08T02:43:09.925Z,15.10
2018-07-08T02:45:38.817Z,15.00
2018-07-08T02:48:07.545Z,15.00
2018-07-08T02:50:36.486Z,14.90
2018-07-08T02:53:05.642Z,14.90
2018-07-08T02:55:34.704Z,14.80
2018-07-08T02:58:07.242Z,14.80
2018-07-08T03:00:36.008Z,14.70
2018-07-08T03:03:04.822Z,14.60
2018-07-08T03:05:33.869Z,14.60
2018-07-08T03:08:03.192Z,14.60
2018-07-08T03:10:32.232Z,14.60
2018-07-08T03:13:02.078Z,14.60
2018-07-08T03:15:30.685Z,14.60
2018-07-08T03:17:59.747Z,14.50
2018-07-08T03:20:28.321Z,14.50
2018-07-08T03:22:58.954Z,14.50
2018-07-08T03:25:32.000Z,14.50
2018-07-08T03:28:00.701Z,14.40
2018-07-08T03:30:29.507Z,14.40
2018-07-08T03:32:58.126Z,14.30
2018-07-08T03:35:26.833Z,14.30
2018-07-08T03:37:59.164Z,14.30
2018-07-08T03:40:27.932Z,14.20
2018-07-08T03:46:08.044Z,14.10
2018-07-08T03:48:36.509Z,14.10
2018-07-08T03:51:05.359Z,14.00
2018-07-08T03:53:33.828Z,14.00
2018-07-08T03:56:02.343Z,14.00
2018-07-08T03:58:30.875Z,14.00
2018-07-08T04:18:08.903Z,14.00
2018-07-08T04:20:39.559Z,14.00
2018-07-08T04:23:08.255Z,14.00
2018-07-08T04:25:36.824Z,14.00
2018-07-08T04:28:05.351Z,14.00
2018-07-08T04:30:33.823Z,14.00
2018-07-08T04:33:02.367Z,14.00
2018-07-08T04:35:30.812Z,14.10
2018-07-08T04:57:54.217Z,14.40
2018-07-08T05:00:22.879Z,14.40
2018-07-08T05:02:51.530Z,14.50
2018-07-08T05:05:20.548Z,14.50
2018-07-08T05:24:51.776Z,14.80
2018-07-08T05:27:20.305Z,14.90
2018-07-08T05:29:48.863Z,14.90
2018-07-08T05:32:17.219Z,14.90
2018-07-08T05:34:45.752Z,14.90
2018-07-08T05:37:14.156Z,15.00
2018-07-08T05:39:42.588Z,15.00
2018-07-08T05:42:11.388Z,15.10
2018-07-08T05:44:39.868Z,15.10
2018-07-08T05:47:08.310Z,15.20
2018-07-08T05:49:36.804Z,15.20
2018-07-08T05:52:05.442Z,15.20
2018-07-08T05:54:33.896Z,15.30
2018-07-08T05:57:02.354Z,15.30
2018-07-08T05:59:31.188Z,15.30
2018-07-08T06:02:00.856Z,15.40
2018-07-08T06:04:29.364Z,15.40
2018-07-08T06:06:58.008Z,15.50
2018-07-08T06:18:05.214Z,15.60
2018-07-08T06:20:33.699Z,15.60
2018-07-08T06:23:02.152Z,15.60
2018-07-08T06:25:30.615Z,15.70
2018-07-08T06:27:59.997Z,15.80
2018-07-08T06:30:28.406Z,15.80
2018-07-08T06:32:56.932Z,15.90
2018-07-08T06:35:25.501Z,16.00
2018-07-08T06:37:54.080Z,16.00
2018-07-08T06:46:05.447Z,16.10
2018-07-08T06:48:34.523Z,16.20
2018-07-08T06:51:03.120Z,16.30
2018-07-08T06:53:31.574Z,16.40
2018-07-08T06:56:00.066Z,16.50
2018-07-08T06:58:28.884Z,16.60
2018-07-08T07:00:57.340Z,16.70
2018-07-08T07:03:25.797Z,16.80
2018-07-08T07:22:57.947Z,17.40
2018-07-08T07:25:26.864Z,17.50
2018-07-08T07:45:04.465Z,18.10
2018-07-08T07:47:34.485Z,18.20
2018-07-08T08:07:11.153Z,18.90
2018-07-08T08:09:41.211Z,19.00
2018-07-08T08:12:10.073Z,19.20
2018-07-08T08:14:38.886Z,19.30
2018-07-08T08:31:22.711Z,19.70
2018-07-08T08:35:06.409Z,19.90
2018-07-08T08:37:37.283Z,20.10
2018-07-08T08:40:07.094Z,20.20
2018-07-08T08:42:37.377Z,20.30
2018-07-08T08:45:07.121Z,20.40
2018-07-08T08:47:35.909Z,20.50
2018-07-08T08:50:04.784Z,20.50
2018-07-08T08:52:38.434Z,20.60
2018-07-08T08:55:08.390Z,20.70
2018-07-08T08:57:37.444Z,20.90
2018-07-08T09:03:09.695Z,21.00
2018-07-08T09:05:38.883Z,21.20
2018-07-08T09:08:07.935Z,21.30
2018-07-08T09:10:37.253Z,21.40
2018-07-08T09:13:10.013Z,21.50
2018-07-08T09:15:38.570Z,21.60
2018-07-08T09:18:07.064Z,21.60
2018-07-08T09:20:37.219Z,21.60
2018-07-08T09:23:05.945Z,21.70
2018-07-08T09:25:34.535Z,21.80
2018-07-08T09:28:03.228Z,21.90
2018-07-08T09:30:32.083Z,22.00
2018-07-08T09:33:01.066Z,22.10
2018-07-08T09:35:29.901Z,22.20
2018-07-08T09:37:58.530Z,22.30
2018-07-08T09:40:31.579Z,22.30
2018-07-08T09:43:07.887Z,22.30
2018-07-08T09:45:36.394Z,22.40
2018-07-08T09:48:10.200Z,22.40
2018-07-08T09:50:38.744Z,22.50
2018-07-08T09:53:08.576Z,22.50
2018-07-08T09:55:37.159Z,22.50
2018-07-08T09:58:05.823Z,22.60
2018-07-08T10:03:41.173Z,22.90
2018-07-08T10:06:10.794Z,23.00
2018-07-08T10:08:39.186Z,23.10
2018-07-08T10:11:08.028Z,23.20
2018-07-08T10:13:36.584Z,23.40
2018-07-08T10:16:05.051Z,23.40
2018-07-08T10:18:33.578Z,23.40
2018-07-08T10:21:02.359Z,23.40
2018-07-08T10:40:39.538Z,23.80
2018-07-08T10:43:09.487Z,23.90
2018-07-08T10:45:38.215Z,24.00
2018-07-08T10:48:06.831Z,24.10
2018-07-08T10:50:35.353Z,24.10
2018-07-08T10:53:03.771Z,24.20
2018-07-08T10:55:32.656Z,24.30
2018-07-08T10:58:01.159Z,24.40
2018-07-08T11:00:30.130Z,24.60
2018-07-08T11:02:58.767Z,24.80
2018-07-08T11:19:44.625Z,25.20
2018-07-08T11:22:14.847Z,25.30
2018-07-08T11:24:43.877Z,25.30
2018-07-08T11:27:14.379Z,25.40
2018-07-08T11:46:56.562Z,25.70
2018-07-08T12:29:31.693Z,26.50
2018-07-08T12:32:00.841Z,26.60
2018-07-08T12:34:29.338Z,26.60
2018-07-08T12:36:57.745Z,26.70
2018-07-08T12:39:27.623Z,26.80
2018-07-08T12:41:56.368Z,26.80
2018-07-08T12:44:26.501Z,26.90
2018-07-08T12:47:09.262Z,26.90
2018-07-08T12:49:38.226Z,27.10
2018-07-08T12:52:07.239Z,27.10
2018-07-08T12:54:38.223Z,27.20
2018-07-08T12:57:08.864Z,27.20
2018-07-08T12:59:37.816Z,27.30
2018-07-08T13:02:07.062Z,27.30
2018-07-08T13:04:37.043Z,27.40
2018-07-08T13:07:07.683Z,27.40
2018-07-08T13:09:37.831Z,27.50
2018-07-08T13:12:06.702Z,27.50
2018-07-08T13:14:35.858Z,27.40
2018-07-08T13:17:05.109Z,27.50
2018-07-08T13:19:34.007Z,27.40
2018-07-08T13:22:12.902Z,27.50
2018-07-08T13:24:47.702Z,27.50
2018-07-08T13:27:20.999Z,27.50
2018-07-08T13:29:50.269Z,27.60
2018-07-08T13:32:21.947Z,27.60
2018-07-08T13:34:53.452Z,27.70
2018-07-08T13:37:24.034Z,27.80
2018-07-08T13:39:52.936Z,27.70
2018-07-08T13:42:24.964Z,27.60
2018-07-08T14:02:09.307Z,28.00
2018-07-08T14:04:39.000Z,28.00
2018-07-08T14:07:07.455Z,28.00
2018-07-08T14:09:35.956Z,28.00
2018-07-08T14:12:04.489Z,28.10
2018-07-08T14:14:33.059Z,28.30
2018-07-08T14:17:02.572Z,28.30
2018-07-08T14:19:31.239Z,28.40
2018-07-08T14:21:59.823Z,28.50
2018-07-08T14:24:29.034Z,28.50
2018-07-08T14:26:57.505Z,28.40
2018-07-08T14:29:26.238Z,28.30
2018-07-08T14:31:55.083Z,28.30
2018-07-08T14:34:23.659Z,28.50
2018-07-08T14:36:52.250Z,28.50
2018-07-08T14:39:20.919Z,28.50
2018-07-08T14:41:49.493Z,28.50
2018-07-08T14:44:18.249Z,28.60
2018-07-08T14:46:47.726Z,28.70
2018-07-08T14:49:16.477Z,28.80
2018-07-08T14:51:46.331Z,28.80
2018-07-08T14:54:13.883Z,28.90
2018-07-08T14:56:42.578Z,28.90
2018-07-08T14:59:11.220Z,28.90
2018-07-08T15:01:39.951Z,29.00
2018-07-08T15:04:08.577Z,29.10
2018-07-08T15:06:37.272Z,29.10
2018-07-08T15:09:09.376Z,29.10
2018-07-08T15:11:38.378Z,29.00
2018-07-08T15:14:06.968Z,29.10
2018-07-08T15:16:35.416Z,29.20
2018-07-08T15:19:04.352Z,29.20
2018-07-08T15:21:33.775Z,29.30
2018-07-08T15:24:02.627Z,29.30
2018-07-08T15:26:31.154Z,29.40
2018-07-08T15:28:59.782Z,29.40
2018-07-08T15:31:28.464Z,29.40
2018-07-08T15:33:57.164Z,29.50
2018-07-08T15:36:31.866Z,29.50
2018-07-08T15:39:00.519Z,29.60
2018-07-08T15:41:29.174Z,29.60
2018-07-08T15:43:57.821Z,29.70
2018-07-08T15:46:26.386Z,29.80
2018-07-08T15:48:59.229Z,29.90
2018-07-08T15:51:27.950Z,29.90
2018-07-08T15:53:57.527Z,29.90
2018-07-08T16:13:28.461Z,30.20
2018-07-08T16:15:57.520Z,30.30
2018-07-08T16:18:26.774Z,30.10
2018-07-08T16:20:55.389Z,30.10
2018-07-08T16:23:23.957Z,29.90
2018-07-08T16:25:53.025Z,30.00
2018-07-08T16:28:22.299Z,30.00
2018-07-08T16:30:52.667Z,30.00
2018-07-08T16:33:21.368Z,30.10
2018-07-08T16:35:56.526Z,30.20
2018-07-08T16:38:25.143Z,30.20
2018-07-08T16:40:55.387Z,30.10
2018-07-08T16:43:24.488Z,30.10
2018-07-08T16:45:53.181Z,30.10
2018-07-08T16:48:22.823Z,30.10
2018-07-08T16:50:51.451Z,30.30
2018-07-08T17:10:30.617Z,31.80
2018-07-08T17:12:59.180Z,31.50
2018-07-08T17:15:29.270Z,31.00
2018-07-08T17:17:57.913Z,30.60
2018-07-08T17:20:27.934Z,30.20
2018-07-08T17:22:56.528Z,29.90
2018-07-08T17:25:25.130Z,29.60
2018-07-08T17:27:53.783Z,29.40
2018-07-08T17:30:24.000Z,29.10
2018-07-08T17:32:52.595Z,28.80
2018-07-08T17:35:21.224Z,28.60
2018-07-08T17:54:49.031Z,27.00
2018-07-08T18:03:15.281Z,26.60
2018-07-08T18:05:48.155Z,26.50
2018-07-08T18:08:22.284Z,26.40
2018-07-08T18:10:51.308Z,26.30
2018-07-08T18:13:20.019Z,26.10
2018-07-08T18:35:52.828Z,25.20
2018-07-08T18:38:21.710Z,25.20
2018-07-08T18:40:51.085Z,25.10
2018-07-08T18:43:19.715Z,25.00
2018-07-08T18:45:52.859Z,24.90
2018-07-08T18:48:21.992Z,24.80
2018-07-08T18:50:50.612Z,24.70
2018-07-08T18:53:19.276Z,24.60
2018-07-08T18:55:48.037Z,24.60
2018-07-08T18:58:17.048Z,24.50
2018-07-08T19:00:48.426Z,24.40
2018-07-08T19:03:17.838Z,24.30
2018-07-08T19:05:48.520Z,24.20
2018-07-08T19:08:19.245Z,24.10
2018-07-08T19:10:53.926Z,24.10
2018-07-08T19:13:23.330Z,24.00
2018-07-08T19:15:52.957Z,23.90
2018-07-08T19:18:21.626Z,23.70
2018-07-08T19:23:43.695Z,23.50
2018-07-08T19:26:12.182Z,23.50
2018-07-08T19:28:41.068Z,23.40
2018-07-08T19:31:10.564Z,23.30
2018-07-08T19:33:39.014Z,23.30
2018-07-08T19:36:07.500Z,23.20
2018-07-08T19:38:36.071Z,23.20
2018-07-08T19:41:04.567Z,23.10
2018-07-08T19:43:33.143Z,23.10
2018-07-08T19:57:32.751Z,22.60
2018-07-08T20:00:01.538Z,22.50
2018-07-08T20:02:30.548Z,22.40
2018-07-08T20:05:02.236Z,22.30
2018-07-08T20:07:39.828Z,22.20
2018-07-08T20:10:09.073Z,22.10
2018-07-08T20:12:39.387Z,22.00
2018-07-08T20:15:09.560Z,21.90
2018-07-08T20:17:41.097Z,21.90
2018-07-08T20:20:12.910Z,21.80
2018-07-08T20:23:18.114Z,21.70
2018-07-08T20:35:32.295Z,21.50
2018-07-08T20:38:01.626Z,21.20
2018-07-08T20:40:33.004Z,21.10
2018-07-08T20:43:02.669Z,21.00
2018-07-08T20:45:31.359Z,20.90
2018-07-08T22:14:38.551Z,18.40
2018-07-08T22:17:12.783Z,18.40
2018-07-08T22:25:23.787Z,18.20
2018-07-08T22:27:58.100Z,18.10
2018-07-08T22:47:42.705Z,17.70
2018-07-08T22:50:16.744Z,17.60
2018-07-08T22:52:54.177Z,17.60
2018-07-08T23:04:17.943Z,17.40
2018-07-08T23:09:54.014Z,17.30
2018-07-08T23:12:29.174Z,17.30
2018-07-08T23:15:06.349Z,17.20
2018-07-08T23:17:53.903Z,17.20
2018-07-08T23:20:26.840Z,17.20
2018-07-08T23:23:03.605Z,17.10
2018-07-08T23:42:45.738Z,17.00
